This is the latest recevied weather packets stored in our database for station/object Allmendg2. If no packets are shown the sender has not sent any weather packets the latest 10 day(s).
| Time | Temp. | Humidity | Pressure | Rain* | Wind** | Luminosity | Snow |
|---|---|---|---|---|---|---|---|
| 1777746730 | 19.44° C | 41% | 1015.6 hPa | 0 mm | - | - | - |
| 1777744931 | 21.67° C | 36% | 1015.7 hPa | 0 mm | - | - | - |
| 1777743130 | 23.33° C | 33% | 1015.9 hPa | 0 mm | - | - | - |
| 1777741330 | 23.89° C | 32% | 1015.8 hPa | 0 mm | - | - | - |
| 1777739530 | 23.89° C | 32% | 1017.4 hPa | 0 mm | - | - | - |
| 1777737733 | 24.44° C | 32% | 1017.3 hPa | 0 mm | - | - | - |
| 1777735930 | 24.44° C | 32% | 1017.4 hPa | 0 mm | - | - | - |
| 1777734130 | 24.44° C | 32% | 1017.9 hPa | 0 mm | - | - | - |
| 1777732330 | 24.44° C | 32% | 1018.2 hPa | 0 mm | - | - | - |
| 1777730530 | 24.44° C | 33% | 1018.7 hPa | 0 mm | - | - | - |
| 1777728731 | 23.89° C | 33% | 1018.6 hPa | 0 mm | - | - | - |
| 1777726930 | 23.89° C | 34% | 1019.2 hPa | 0 mm | - | - | - |
| 1777725131 | 23.33° C | 34% | 1019.5 hPa | 0 mm | - | - | - |
| 1777723330 | 22.78° C | 36% | 1019.8 hPa | 0 mm | - | - | - |
| 1777721531 | 22.78° C | 40% | 1020 hPa | 0 mm | - | - | - |
| 1777719730 | 21.67° C | 43% | 1020.3 hPa | 0 mm | - | - | - |
| 1777717930 | 20.56° C | 47% | 1020.7 hPa | 0 mm | - | - | - |
| 1777716131 | 10.56° C | 55% | 1024.1 hPa | 0 mm | - | - | - |
| 1777714331 | 10.56° C | 55% | 1024.1 hPa | 0 mm | - | - | - |
| 1777712530 | 10.56° C | 55% | 1024.1 hPa | 0 mm | - | - | - |
| 1777710730 | 10.56° C | 55% | 1024.1 hPa | 0 mm | - | - | - |
| 1777708931 | 10.56° C | 55% | 1024.1 hPa | 0 mm | - | - | - |
| 1777707130 | 10.56° C | 55% | 1024.1 hPa | 0 mm | - | - | - |
| 1777705333 | 10.56° C | 55% | 1024.1 hPa | 0 mm | - | - | - |
| 1777703532 | 10.56° C | 55% | 1024.1 hPa | 0 mm | - | - | - |
* Rain since midnight (hover to see other rain measurements)
** Current wind speed in m/s (hover to see current wind gust speed)